Time;durP1;ratioP1;P1;durP2;ratioP2;P2;SDS_P1;SDS_P2;PMS_P1;PMS_P2;Temp;Humidity;BMP_temperature;BMP_pressure;BME280_temperature;BME280_humidity;BME280_pressure;Samples;Min_cycle;Max_cycle;Signal;HPM_P1;HPM_P2
2022/06/09 00:01:19;;;;;;;2.10;1.30;;;18.90;63.70;;;;;;5110258;28;20126;-71
2022/06/09 00:03:48;;;;;;;2.17;1.23;;;20.70;64.60;;;;;;5109277;28;20199;-71
2022/06/09 00:06:15;;;;;;;3.65;1.23;;;20.00;60.80;;;;;;5109581;28;20051;-71
2022/06/09 00:08:45;;;;;;;1.70;1.27;;;20.10;60.90;;;;;;5110119;28;20090;-71
2022/06/09 00:11:13;;;;;;;2.33;1.38;;;20.00;60.80;;;;;;5109867;28;20557;-71
2022/06/09 00:13:40;;;;;;;2.83;1.30;;;20.70;64.80;;;;;;5100590;28;20086;-71
2022/06/09 00:16:09;;;;;;;2.08;1.35;;;18.90;64.00;;;;;;5090956;28;20075;-71
2022/06/09 00:18:36;;;;;;;1.50;1.20;;;19.10;63.90;;;;;;5090494;28;20097;-71
2022/06/09 00:21:02;;;;;;;2.70;1.25;;;19.90;64.60;;;;;;5098783;28;20086;-71
2022/06/09 00:23:29;;;;;;;2.17;1.30;;;20.00;64.10;;;;;;5109459;28;20556;-71
2022/06/09 00:25:56;;;;;;;2.67;1.40;;;20.00;60.80;;;;;;5109240;28;20047;-69
2022/06/09 00:28:23;;;;;;;2.53;1.27;;;20.00;60.80;;;;;;5110232;28;20585;-70
2022/06/09 00:30:50;;;;;;;2.10;1.30;;;18.80;63.80;;;;;;5108515;28;20577;-71
2022/06/09 00:33:18;;;;;;;2.53;1.30;;;20.00;60.80;;;;;;5111230;28;20040;-70
2022/06/09 00:35:44;;;;;;;1.70;1.23;;;19.90;64.30;;;;;;5112976;28;20387;-70
2022/06/09 00:38:11;;;;;;;3.35;1.52;;;20.00;60.80;;;;;;5113158;28;20060;-70
2022/06/09 00:40:38;;;;;;;2.13;1.40;;;19.80;64.50;;;;;;5114468;28;20122;-71
2022/06/09 00:43:05;;;;;;;1.95;1.30;;;19.90;60.70;;;;;;5113353;28;20682;-70
2022/06/09 00:45:33;;;;;;;1.85;1.25;;;20.20;63.70;;;;;;5112698;28;20131;-71
2022/06/09 00:48:14;;;;;;;1.95;1.20;;;20.00;60.80;;;;;;5113523;28;20047;-70
2022/06/09 00:50:42;;;;;;;3.05;1.40;;;20.00;60.70;;;;;;5113309;28;20142;-71
2022/06/09 00:53:11;;;;;;;2.40;1.45;;;19.90;64.20;;;;;;5114368;28;20128;-71
2022/06/09 00:55:38;;;;;;;2.35;1.27;;;20.00;63.40;;;;;;5112955;28;20043;-71
2022/06/09 00:58:06;;;;;;;2.53;1.38;;;19.90;65.00;;;;;;5114576;28;20120;-71
2022/06/09 01:00:36;;;;;;;2.92;1.38;;;19.60;64.50;;;;;;5113214;28;20130;-70
2022/06/09 01:03:03;;;;;;;2.83;1.33;;;20.00;64.50;;;;;;5111570;28;20043;-71
2022/06/09 01:05:31;;;;;;;2.13;1.30;;;19.40;63.00;;;;;;5112625;28;20051;-70
2022/06/09 01:08:02;;;;;;;3.80;1.50;;;19.90;60.70;;;;;;5113871;28;20545;-71
2022/06/09 01:10:29;;;;;;;1.92;1.20;;;19.90;60.70;;;;;;5113186;28;20081;-71
2022/06/09 01:12:58;;;;;;;3.00;1.45;;;19.90;65.20;;;;;;5113823;28;20138;-71
2022/06/09 01:15:32;;;;;;;2.70;1.42;;;19.80;63.40;;;;;;5094695;28;20121;-71
2022/06/09 01:18:03;;;;;;;2.22;1.50;;;19.80;64.10;;;;;;5107196;28;20146;-71
2022/06/09 01:20:35;;;;;;;1.77;1.25;;;19.80;64.80;;;;;;5112895;28;20051;-70
2022/06/09 01:23:20;;;;;;;2.25;1.60;;;19.90;60.70;;;;;;5112744;28;20086;-71
2022/06/09 01:26:02;;;;;;;1.83;1.27;;;19.80;64.10;;;;;;5112755;28;20058;-71
2022/06/09 01:28:51;;;;;;;3.03;1.55;;;19.80;60.70;;;;;;5103214;28;20056;-71
2022/06/09 01:31:21;;;;;;;3.08;1.40;;;20.50;65.90;;;;;;5093285;28;20044;-71
2022/06/09 01:33:49;;;;;;;2.53;1.35;;;19.80;60.70;;;;;;5091687;28;20076;-71
2022/06/09 01:36:20;;;;;;;3.17;1.50;;;18.60;63.90;;;;;;5092353;27;20131;-70
2022/06/09 01:38:47;;;;;;;2.53;1.45;;;20.50;64.70;;;;;;5132404;27;20103;-71
2022/06/09 01:41:16;;;;;;;3.83;1.20;;;19.60;65.30;;;;;;5092890;28;20044;-71
2022/06/09 01:43:43;;;;;;;2.45;1.30;;;18.60;63.60;;;;;;5091576;28;20433;-71
2022/06/09 01:46:11;;;;;;;2.20;1.27;;;18.50;64.60;;;;;;5091854;28;20135;-71
2022/06/09 01:48:40;;;;;;;2.20;1.30;;;19.80;60.70;;;;;;5089459;28;20714;-71
2022/06/09 01:51:09;;;;;;;3.83;1.63;;;19.80;64.80;;;;;;5090892;28;20079;-71
2022/06/09 01:53:36;;;;;;;2.88;1.30;;;19.80;60.70;;;;;;5091923;28;20083;-71
2022/06/09 01:56:05;;;;;;;3.00;1.20;;;19.80;60.70;;;;;;5090408;28;20166;-71
2022/06/09 01:58:35;;;;;;;2.97;1.65;;;19.10;64.00;;;;;;5089695;28;20538;-71
2022/06/09 02:01:01;;;;;;;4.35;1.65;;;19.70;64.70;;;;;;5091266;28;20048;-71
2022/06/09 02:03:30;;;;;;;2.38;1.40;;;19.70;60.60;;;;;;5110730;28;20632;-71
2022/06/09 02:05:59;;;;;;;2.95;1.50;;;19.70;60.60;;;;;;5109494;28;20562;-71
2022/06/09 02:08:25;;;;;;;3.55;1.77;;;20.20;64.70;;;;;;5109517;28;20051;-71
2022/06/09 02:10:54;;;;;;;2.80;1.50;;;19.70;60.70;;;;;;5108980;28;20549;-71
2022/06/09 02:13:23;;;;;;;2.15;1.35;;;19.70;60.70;;;;;;5108944;28;20062;-71
2022/06/09 02:15:50;;;;;;;4.03;1.50;;;19.70;64.90;;;;;;5109505;28;20685;-71
2022/06/09 02:18:19;;;;;;;3.63;1.60;;;19.70;64.60;;;;;;5109582;28;20062;-71
2022/06/09 02:20:49;;;;;;;2.80;1.40;;;19.80;65.30;;;;;;5109577;28;20138;-71
2022/06/09 02:23:17;;;;;;;2.53;1.60;;;19.70;63.90;;;;;;5108651;28;20063;-71
2022/06/09 02:25:44;;;;;;;2.80;1.40;;;19.80;64.40;;;;;;5108366;28;20055;-71
2022/06/09 02:28:10;;;;;;;2.83;1.63;;;21.90;61.80;;;;;;5108669;28;20147;-71
2022/06/09 02:30:38;;;;;;;2.35;1.50;;;19.70;64.70;;;;;;5110229;28;20047;-71
2022/06/09 02:33:05;;;;;;;2.75;1.65;;;19.70;60.60;;;;;;5110430;28;20079;-71
2022/06/09 02:35:32;;;;;;;3.28;1.40;;;18.80;62.80;;;;;;5109039;28;20508;-71
2022/06/09 02:38:00;;;;;;;3.97;1.50;;;19.60;64.10;;;;;;5108900;28;20074;-71
2022/06/09 02:40:28;;;;;;;4.43;1.77;;;19.70;60.60;;;;;;5110070;28;20054;-71
2022/06/09 02:42:55;;;;;;;2.85;1.48;;;19.70;60.60;;;;;;5102374;28;20530;-71
2022/06/09 02:45:21;;;;;;;2.88;1.65;;;19.30;64.20;;;;;;5089851;28;20474;-71
2022/06/09 02:47:48;;;;;;;4.47;1.58;;;19.70;65.50;;;;;;5089520;28;20052;-71
2022/06/09 02:50:15;;;;;;;2.17;1.35;;;19.60;60.60;;;;;;5089496;28;20050;-71
2022/06/09 02:52:42;;;;;;;2.70;1.50;;;18.80;64.00;;;;;;5088183;28;20131;-71
2022/06/09 02:55:09;;;;;;;2.42;1.40;;;18.90;64.10;;;;;;5088185;28;20052;-71
2022/06/09 02:57:37;;;;;;;3.33;1.48;;;19.70;60.70;;;;;;5089109;28;20454;-71
2022/06/09 03:00:05;;;;;;;3.80;1.65;;;19.10;64.70;;;;;;5089061;28;20131;-70
2022/06/09 03:02:32;;;;;;;3.28;1.35;;;19.40;64.50;;;;;;5100962;28;20066;-71
2022/06/09 03:04:59;;;;;;;2.60;1.45;;;19.70;60.70;;;;;;5109506;28;20050;-71
2022/06/09 03:07:26;;;;;;;3.47;1.40;;;19.40;63.90;;;;;;5085328;28;20048;-71
2022/06/09 03:09:53;;;;;;;2.72;1.58;;;19.70;64.70;;;;;;5098144;28;20069;-71
2022/06/09 03:12:20;;;;;;;3.83;1.63;;;19.60;64.50;;;;;;5109884;28;20043;-71
2022/06/09 03:14:48;;;;;;;3.60;1.65;;;19.60;60.60;;;;;;5108221;28;20047;-71
2022/06/09 03:17:15;;;;;;;2.72;1.60;;;19.60;60.60;;;;;;5088078;28;20402;-71
2022/06/09 03:19:42;;;;;;;3.13;1.58;;;19.40;64.40;;;;;;5088043;28;20060;-71
2022/06/09 03:22:08;;;;;;;3.55;1.52;;;18.80;64.30;;;;;;5089138;28;20079;-71
2022/06/09 03:24:36;;;;;;;4.13;1.85;;;19.60;60.60;;;;;;5087408;28;20066;-71
2022/06/09 03:27:03;;;;;;;3.28;1.75;;;19.60;60.60;;;;;;5087927;28;20459;-71
2022/06/09 03:29:30;;;;;;;1.90;1.30;;;20.70;65.30;;;;;;5087912;28;20055;-71
2022/06/09 03:31:58;;;;;;;2.40;1.40;;;18.60;63.50;;;;;;5090071;28;20139;-71
2022/06/09 03:34:25;;;;;;;4.00;1.55;;;19.60;64.50;;;;;;5087671;28;20055;-70
2022/06/09 03:36:51;;;;;;;4.57;1.58;;;19.60;65.30;;;;;;5098779;27;20047;-72
2022/06/09 03:39:18;;;;;;;3.03;1.70;;;19.60;60.70;;;;;;5128415;27;20130;-71
2022/06/09 03:41:45;;;;;;;2.85;1.67;;;19.80;64.30;;;;;;5128574;27;20065;-71
2022/06/09 03:44:11;;;;;;;3.63;1.90;;;19.50;60.60;;;;;;5128203;27;20138;-70
2022/06/09 03:46:38;;;;;;;3.70;1.73;;;19.60;60.60;;;;;;5129598;27;20126;-70
2022/06/09 03:49:06;;;;;;;3.30;1.77;;;19.50;60.60;;;;;;5117557;27;20448;-71
2022/06/09 03:51:33;;;;;;;2.78;1.52;;;20.40;64.80;;;;;;5108175;28;20482;-71
2022/06/09 03:54:00;;;;;;;1.90;1.30;;;19.50;60.60;;;;;;5107666;28;20607;-70
2022/06/09 03:56:27;;;;;;;5.72;1.90;;;19.50;60.60;;;;;;5107947;28;20125;-71
2022/06/09 03:58:53;;;;;;;2.88;1.70;;;19.40;64.50;;;;;;5108610;28;20582;-71
2022/06/09 04:01:20;;;;;;;2.60;1.75;;;19.60;64.20;;;;;;5108661;28;20040;-71
2022/06/09 04:03:47;;;;;;;3.22;1.52;;;19.10;64.90;;;;;;5107224;28;20154;-71
2022/06/09 04:06:17;;;;;;;3.80;1.52;;;19.50;60.70;;;;;;5108081;28;20430;-71
2022/06/09 04:08:43;;;;;;;3.35;1.80;;;19.30;63.90;;;;;;5111291;28;20051;-71
2022/06/09 04:11:11;;;;;;;3.33;1.55;;;19.50;60.60;;;;;;5111847;28;20710;-71
2022/06/09 04:13:37;;;;;;;3.97;1.50;;;19.50;60.60;;;;;;5112802;27;20100;-70
2022/06/09 04:16:06;;;;;;;2.67;1.40;;;19.50;60.70;;;;;;5111235;28;20135;-70
2022/06/09 04:18:33;;;;;;;4.18;1.77;;;19.50;60.60;;;;;;5097591;28;20102;-70
2022/06/09 04:20:59;;;;;;;3.45;1.52;;;19.40;63.70;;;;;;5105212;28;20135;-70
2022/06/09 04:23:27;;;;;;;4.28;1.90;;;19.50;60.60;;;;;;5093883;28;20459;-70
2022/06/09 04:25:54;;;;;;;3.22;1.60;;;19.50;64.60;;;;;;5100362;28;20058;-70
2022/06/09 04:28:21;;;;;;;4.75;1.73;;;19.50;60.60;;;;;;5101980;28;20082;-70
2022/06/09 04:30:48;;;;;;;2.90;1.60;;;19.50;60.60;;;;;;5102062;28;20043;-70
2022/06/09 04:33:15;;;;;;;2.92;1.50;;;18.40;64.00;;;;;;5103075;28;20071;-70
2022/06/09 04:35:42;;;;;;;3.08;1.70;;;19.20;63.60;;;;;;5100733;28;20087;-70
2022/06/09 04:38:11;;;;;;;3.45;1.70;;;19.50;60.60;;;;;;5101398;28;20502;-70
2022/06/09 04:40:40;;;;;;;3.78;1.70;;;20.50;65.00;;;;;;5101151;28;20048;-70
2022/06/09 04:43:07;;;;;;;3.45;1.60;;;19.60;64.40;;;;;;5099997;28;20082;-71
2022/06/09 04:45:35;;;;;;;4.10;1.70;;;19.60;63.30;;;;;;5101802;28;20104;-70
2022/06/09 04:48:02;;;;;;;3.80;1.80;;;19.30;65.00;;;;;;5101526;28;20070;-69
2022/06/09 04:50:29;;;;;;;2.70;1.50;;;19.60;64.50;;;;;;5099951;28;20413;-70
2022/06/09 04:52:57;;;;;;;4.03;1.70;;;19.40;60.60;;;;;;5102181;28;20126;-70
2022/06/09 04:55:23;;;;;;;4.78;2.15;;;19.30;64.50;;;;;;5098411;28;20689;-70
2022/06/09 04:57:52;;;;;;;3.83;1.90;;;20.60;65.40;;;;;;5100902;28;20051;-70
2022/06/09 05:00:19;;;;;;;3.25;1.67;;;19.40;60.60;;;;;;5100468;28;20071;-70
2022/06/09 05:02:46;;;;;;;4.15;1.75;;;19.50;60.60;;;;;;5098674;28;20626;-70
2022/06/09 05:05:18;;;;;;;2.83;1.50;;;19.30;64.20;;;;;;5101475;28;20055;-70
2022/06/09 05:07:44;;;;;;;2.45;1.63;;;19.40;60.60;;;;;;5098591;28;20076;-70
2022/06/09 05:10:11;;;;;;;2.90;1.70;;;19.40;64.00;;;;;;5101612;28;20130;-70
2022/06/09 05:12:38;;;;;;;3.28;1.60;;;19.50;60.60;;;;;;5098837;28;20070;-70
2022/06/09 05:15:07;;;;;;;3.08;1.70;;;19.50;60.60;;;;;;5100241;28;20550;-70
2022/06/09 05:17:34;;;;;;;3.25;1.85;;;19.40;60.60;;;;;;5101116;28;20100;-70
2022/06/09 05:20:01;;;;;;;4.53;1.73;;;19.50;60.70;;;;;;5099064;28;20562;-70
2022/06/09 05:22:28;;;;;;;4.53;1.70;;;19.50;64.40;;;;;;5099741;28;20551;-70
2022/06/09 05:24:58;;;;;;;5.72;1.73;;;19.50;60.70;;;;;;5101926;28;20135;-70
2022/06/09 05:27:24;;;;;;;4.50;1.90;;;19.40;64.80;;;;;;5100223;28;20047;-70
2022/06/09 05:29:51;;;;;;;3.25;1.45;;;19.40;63.90;;;;;;5107246;28;20693;-70
2022/06/09 05:32:20;;;;;;;2.90;1.55;;;19.30;64.60;;;;;;5099234;28;20111;-70
2022/06/09 05:34:47;;;;;;;4.25;1.70;;;19.00;64.30;;;;;;5090874;28;20048;-70
2022/06/09 05:37:13;;;;;;;2.95;1.60;;;20.10;65.30;;;;;;5098136;28;20048;-70
2022/06/09 05:45:08;;;;;;;2.95;1.70;;;19.20;63.90;;;;;;5098394;28;20044;-70
2022/06/09 05:47:36;;;;;;;2.60;1.60;;;19.40;60.60;;;;;;5091000;28;20087;-69
2022/06/09 05:50:03;;;;;;;2.63;1.60;;;19.40;60.60;;;;;;5090591;28;20044;-70
2022/06/09 05:52:30;;;;;;;3.03;1.83;;;19.30;63.70;;;;;;5089793;28;20056;-70
2022/06/09 05:54:57;;;;;;;4.00;1.90;;;19.40;65.20;;;;;;5089501;28;20058;-70
2022/06/09 05:57:24;;;;;;;1.80;1.40;;;19.00;64.70;;;;;;5089386;28;20119;-69
2022/06/09 05:59:51;;;;;;;2.17;1.65;;;19.40;64.50;;;;;;5108708;28;20051;-70
2022/06/09 06:02:17;;;;;;;2.95;1.70;;;19.40;60.60;;;;;;5108318;28;20123;-70
2022/06/09 06:04:46;;;;;;;5.25;1.95;;;19.20;63.60;;;;;;5109440;28;20063;-70
2022/06/09 06:07:13;;;;;;;2.60;1.60;;;19.40;60.60;;;;;;5109370;28;20130;-70
2022/06/09 06:09:40;;;;;;;2.25;1.50;;;19.40;60.60;;;;;;5109714;28;20059;-70
2022/06/09 06:12:07;;;;;;;2.33;1.50;;;19.50;60.60;;;;;;5109341;28;20119;-70
2022/06/09 06:14:35;;;;;;;4.15;1.85;;;19.50;60.70;;;;;;5109562;28;20082;-70
2022/06/09 06:17:01;;;;;;;3.22;1.80;;;19.40;65.60;;;;;;5108580;28;20059;-70
2022/06/09 06:19:28;;;;;;;2.55;1.70;;;19.50;60.60;;;;;;5089277;28;20487;-70
2022/06/09 06:21:56;;;;;;;2.58;1.70;;;19.40;60.60;;;;;;5090316;28;20050;-70
2022/06/09 06:24:24;;;;;;;2.60;1.58;;;19.50;60.60;;;;;;5088868;28;20056;-70
2022/06/09 06:26:51;;;;;;;3.30;1.80;;;20.10;64.20;;;;;;5088863;28;20044;-70
2022/06/09 06:29:19;;;;;;;2.50;1.60;;;19.50;64.30;;;;;;5089004;28;20070;-70
2022/06/09 06:31:46;;;;;;;2.28;1.73;;;19.40;60.50;;;;;;5088117;28;20550;-70
2022/06/09 06:34:13;;;;;;;2.95;1.88;;;19.50;60.50;;;;;;5089738;28;20080;-71
2022/06/09 06:36:40;;;;;;;4.28;1.70;;;20.20;64.90;;;;;;5097672;28;20051;-71
2022/06/09 06:39:08;;;;;;;2.33;1.70;;;19.40;64.40;;;;;;5108661;28;20135;-71
2022/06/09 06:41:35;;;;;;;2.55;1.77;;;19.40;60.50;;;;;;5109997;28;20054;-71
2022/06/09 06:44:02;;;;;;;2.92;1.85;;;19.50;60.60;;;;;;5108656;28;20142;-71
2022/06/09 06:46:28;;;;;;;2.67;1.70;;;19.50;60.60;;;;;;5110150;28;20058;-71
2022/06/09 06:48:55;;;;;;;3.58;1.90;;;19.40;65.70;;;;;;5110195;28;20050;-71
2022/06/09 06:51:22;;;;;;;3.63;1.70;;;19.50;64.20;;;;;;5108664;28;20603;-71
2022/06/09 06:53:49;;;;;;;2.60;1.85;;;19.50;60.50;;;;;;5108806;28;20143;-71
2022/06/09 06:56:17;;;;;;;2.28;1.75;;;19.60;60.50;;;;;;5109416;28;20478;-72
2022/06/09 06:58:44;;;;;;;4.13;1.90;;;19.50;63.90;;;;;;5100125;27;20721;-72
2022/06/09 07:01:11;;;;;;;4.55;2.00;;;19.60;64.80;;;;;;5098044;28;20131;-72
2022/06/09 07:03:37;;;;;;;2.75;1.90;;;19.80;64.60;;;;;;5096923;28;20044;-71
2022/06/09 07:06:05;;;;;;;2.75;1.80;;;19.60;63.90;;;;;;5098874;28;20087;-72
2022/06/09 07:08:32;;;;;;;3.60;1.95;;;20.60;65.30;;;;;;5097239;28;20044;-72
2022/06/09 07:10:59;;;;;;;3.95;1.90;;;18.80;63.90;;;;;;5096738;28;20093;-72
2022/06/09 07:13:27;;;;;;;4.15;2.00;;;19.80;60.40;;;;;;5099934;28;20071;-71
2022/06/09 07:15:53;;;;;;;3.22;1.98;;;20.20;64.20;;;;;;5101303;28;20123;-71
2022/06/09 07:18:20;;;;;;;2.40;1.70;;;21.00;64.80;;;;;;5099016;28;20078;-72
2022/06/09 07:20:47;;;;;;;2.17;1.85;;;19.90;64.10;;;;;;5105216;28;20078;-72
2022/06/09 07:23:14;;;;;;;2.00;1.80;;;20.10;64.40;;;;;;5108266;28;20163;-71
2022/06/09 07:25:40;;;;;;;2.50;1.85;;;20.10;62.70;;;;;;5099362;28;20121;-72
2022/06/09 07:28:07;;;;;;;2.40;1.95;;;20.10;63.90;;;;;;5088175;28;20133;-71
2022/06/09 07:30:35;;;;;;;2.55;1.55;;;21.20;65.00;;;;;;5102551;28;20069;-71
2022/06/09 07:33:02;;;;;;;2.28;1.70;;;20.80;64.00;;;;;;5109723;28;20130;-71
2022/06/09 07:35:30;;;;;;;2.58;1.58;;;21.30;62.30;;;;;;5104278;28;20039;-71
2022/06/09 07:37:57;;;;;;;2.00;1.50;;;20.80;63.10;;;;;;5119832;27;20156;-71
2022/06/09 07:40:24;;;;;;;2.20;1.60;;;20.80;59.20;;;;;;5124587;27;20050;-70
2022/06/09 07:42:51;;;;;;;4.07;1.85;;;21.00;63.90;;;;;;5088402;28;20107;-71
2022/06/09 07:45:18;;;;;;;3.35;1.58;;;20.90;63.20;;;;;;5088080;28;20139;-74
2022/06/09 07:47:46;;;;;;;2.42;1.75;;;21.00;58.90;;;;;;5088389;28;20050;-69
2022/06/09 07:50:13;;;;;;;4.13;1.85;;;21.00;58.70;;;;;;5090661;28;20058;-71
2022/06/09 07:52:41;;;;;;;2.72;1.73;;;21.30;62.60;;;;;;5088006;28;20066;-71
2022/06/09 07:55:08;;;;;;;2.90;1.60;;;21.20;62.40;;;;;;5094836;28;20486;-71
2022/06/09 07:57:35;;;;;;;2.55;1.75;;;21.10;58.60;;;;;;5076001;28;20421;-71
2022/06/09 08:00:03;;;;;;;5.38;1.92;;;21.20;58.60;;;;;;5090442;28;20135;-71
2022/06/09 08:02:30;;;;;;;2.83;2.22;;;21.50;62.40;;;;;;5090428;28;20047;-70
2022/06/09 08:04:58;;;;;;;2.15;1.70;;;21.20;58.50;;;;;;5087926;28;20052;-71
2022/06/09 08:07:26;;;;;;;3.38;2.00;;;21.20;58.40;;;;;;5088638;28;20127;-70
2022/06/09 08:09:53;;;;;;;4.25;2.40;;;22.30;63.60;;;;;;5101173;28;20474;-70
2022/06/09 08:12:20;;;;;;;3.08;2.10;;;21.30;63.40;;;;;;5099316;28;20126;-70
2022/06/09 08:14:47;;;;;;;2.28;1.77;;;21.50;63.50;;;;;;5091436;28;20047;-70
2022/06/09 08:17:14;;;;;;;2.60;2.00;;;21.30;58.30;;;;;;5095180;28;20138;-71
2022/06/09 08:19:42;;;;;;;2.53;1.95;;;21.40;58.30;;;;;;5097409;28;20040;-71
2022/06/09 08:22:10;;;;;;;2.45;1.90;;;21.90;62.20;;;;;;5095950;28;20048;-70
2022/06/09 08:24:37;;;;;;;2.33;1.83;;;22.70;62.60;;;;;;5095677;28;20047;-71
2022/06/09 08:27:04;;;;;;;5.68;2.00;;;21.50;58.10;;;;;;5086989;28;20519;-71
2022/06/09 08:29:31;;;;;;;3.13;1.92;;;21.60;62.50;;;;;;5098320;28;20130;-70
2022/06/09 08:31:58;;;;;;;3.35;1.98;;;21.70;58.20;;;;;;5107039;28;20131;-71
2022/06/09 08:34:24;;;;;;;2.38;2.10;;;21.70;58.10;;;;;;5107242;28;20170;-70
2022/06/09 08:36:51;;;;;;;2.13;1.90;;;21.60;61.90;;;;;;5107597;28;20059;-71
2022/06/09 08:39:20;;;;;;;2.50;1.92;;;21.70;58.10;;;;;;5107310;28;20058;-71
2022/06/09 08:41:53;;;;;;;2.72;1.90;;;21.90;61.80;;;;;;5107514;28;20100;-71
2022/06/09 08:44:25;;;;;;;5.78;2.00;;;21.70;62.40;;;;;;5107416;28;20108;-72
2022/06/09 08:46:56;;;;;;;2.60;1.92;;;21.80;57.90;;;;;;5106604;28;20062;-70
2022/06/09 08:49:31;;;;;;;3.00;2.08;;;22.00;58.00;;;;;;5107776;28;20051;-70
2022/06/09 08:51:59;;;;;;;2.47;1.90;;;21.90;58.00;;;;;;5107330;28;20138;-70
2022/06/09 08:54:29;;;;;;;3.00;2.05;;;22.00;63.30;;;;;;5108068;28;20051;-71
2022/06/09 08:56:56;;;;;;;2.22;1.83;;;21.80;57.90;;;;;;5111344;28;20066;-71
2022/06/09 08:59:25;;;;;;;2.28;1.75;;;21.90;58.00;;;;;;5112397;28;20658;-71
2022/06/09 09:01:55;;;;;;;2.65;1.85;;;22.90;62.50;;;;;;5111179;28;20057;-71
2022/06/09 09:04:24;;;;;;;1.73;1.60;;;22.00;57.90;;;;;;5111632;28;20047;-71
2022/06/09 09:06:56;;;;;;;2.33;1.90;;;21.90;57.90;;;;;;5110936;28;20075;-71
2022/06/09 09:09:23;;;;;;;2.28;2.00;;;22.10;62.20;;;;;;5110708;28;20134;-71
2022/06/09 09:11:58;;;;;;;3.67;2.38;;;21.90;57.90;;;;;;5110556;28;20100;-71
2022/06/09 09:14:27;;;;;;;3.83;1.90;;;21.10;61.50;;;;;;5110699;28;20146;-71
2022/06/09 09:16:57;;;;;;;3.17;2.10;;;21.90;61.90;;;;;;5110918;28;20055;-71
2022/06/09 09:19:42;;;;;;;2.20;1.70;;;21.90;61.50;;;;;;5091424;28;20395;-71
2022/06/09 09:22:11;;;;;;;2.57;1.90;;;21.90;61.40;;;;;;5089533;28;20052;-71
2022/06/09 09:24:41;;;;;;;2.03;1.65;;;21.90;58.00;;;;;;5089958;28;20127;-71
2022/06/09 09:27:29;;;;;;;6.00;3.15;;;22.30;62.00;;;;;;5089725;28;20051;-71
2022/06/09 09:29:58;;;;;;;17.65;8.90;;;20.90;62.30;;;;;;5090022;28;20131;-71
2022/06/09 09:32:27;;;;;;;11.35;5.80;;;21.90;58.20;;;;;;5089625;28;20086;-69
2022/06/09 09:34:54;;;;;;;9.77;4.57;;;21.90;58.30;;;;;;5096456;28;20134;-70
2022/06/09 09:37:24;;;;;;;7.18;3.75;;;21.90;61.40;;;;;;5084814;28;20071;-70
2022/06/09 09:39:53;;;;;;;6.28;3.83;;;21.80;61.90;;;;;;5104563;28;20048;-71
2022/06/09 09:42:21;;;;;;;8.43;3.58;;;21.90;58.20;;;;;;5110362;28;20517;-71
2022/06/09 09:45:16;;;;;;;5.30;3.33;;;22.00;62.20;;;;;;5109917;28;20063;-71
2022/06/09 09:47:45;;;;;;;6.50;3.20;;;21.90;58.90;;;;;;5106197;28;20455;-71
2022/06/09 09:50:22;;;;;;;7.50;3.60;;;21.90;58.10;;;;;;5105878;28;20078;-70
2022/06/09 09:52:49;;;;;;;5.13;3.10;;;21.90;58.10;;;;;;5096100;28;20455;-70
2022/06/09 09:55:26;;;;;;;8.63;3.50;;;21.80;62.30;;;;;;5093982;28;20147;-70
2022/06/09 09:58:08;;;;;;;8.15;3.05;;;21.90;58.10;;;;;;5095614;28;20055;-70
2022/06/09 10:00:36;;;;;;;5.63;3.30;;;22.00;61.50;;;;;;5097409;28;20047;-71
2022/06/09 10:08:38;;;;;;;4.63;2.90;;;22.10;61.80;;;;;;5100953;28;20039;-71
2022/06/09 10:11:53;;;;;;;5.55;3.28;;;21.80;62.10;;;;;;5109308;28;20051;-70
2022/06/09 10:13:54;;;;;;;5.00;2.65;;;22.00;62.10;;;;;;5109057;28;20055;-70
2022/06/09 10:16:22;;;;;;;6.03;2.72;;;21.90;58.20;;;;;;5099775;28;20127;-70
2022/06/09 10:18:53;;;;;;;5.63;2.67;;;21.80;62.00;;;;;;5097461;28;20119;-70
2022/06/09 10:21:20;;;;;;;4.75;2.60;;;21.50;61.30;;;;;;5099190;28;20494;-70
2022/06/09 10:23:50;;;;;;;4.93;2.45;;;22.00;58.20;;;;;;5097531;28;20054;-71
2022/06/09 10:26:18;;;;;;;4.82;2.85;;;22.10;62.80;;;;;;5096584;28;20056;-71
2022/06/09 10:28:48;;;;;;;5.25;2.58;;;22.20;62.90;;;;;;5091947;28;20082;-71
2022/06/09 10:31:21;;;;;;;5.90;2.53;;;22.70;62.20;;;;;;5094571;28;20134;-71
2022/06/09 10:33:52;;;;;;;4.38;2.40;;;22.10;58.10;;;;;;5095200;28;20040;-71
2022/06/09 10:36:21;;;;;;;5.85;2.45;;;22.10;58.10;;;;;;5100674;27;20055;-71
2022/06/09 10:38:49;;;;;;;4.63;2.58;;;22.10;58.20;;;;;;5103472;28;20044;-70
2022/06/09 10:41:29;;;;;;;5.47;2.30;;;22.10;58.20;;;;;;5088917;28;20048;-70
2022/06/09 10:43:58;;;;;;;4.55;2.35;;;22.10;58.20;;;;;;5099872;28;20058;-71
2022/06/09 10:46:30;;;;;;;15.32;3.03;;;21.90;62.10;;;;;;5108831;28;20208;-69
2022/06/09 10:57:26;;;;;;;5.65;2.20;;;22.00;62.00;;;;;;5088745;28;20526;-71
2022/06/09 10:59:55;;;;;;;8.27;2.15;;;22.00;62.70;;;;;;5087918;28;20550;-71
2022/06/09 11:02:23;;;;;;;3.22;2.03;;;22.00;58.70;;;;;;5082882;28;20406;-70
2022/06/09 11:04:52;;;;;;;6.22;1.90;;;22.20;58.90;;;;;;5103766;28;20437;-70
2022/06/09 11:07:33;;;;;;;4.63;1.95;;;22.40;62.30;;;;;;5094948;28;20062;-71
2022/06/09 11:10:07;;;;;;;2.33;1.80;;;21.90;62.90;;;;;;5100954;28;20048;-71
2022/06/09 11:12:38;;;;;;;3.58;1.92;;;22.20;62.30;;;;;;5099618;28;20139;-71
2022/06/09 11:15:20;;;;;;;2.75;1.90;;;22.00;58.70;;;;;;5100431;28;20385;-71
2022/06/09 11:17:53;;;;;;;3.60;2.08;;;22.00;58.60;;;;;;5092548;28;20135;-71
2022/06/09 11:20:29;;;;;;;3.58;1.80;;;21.90;62.70;;;;;;5092063;28;20534;-71
2022/06/09 11:23:01;;;;;;;3.35;1.90;;;22.10;63.30;;;;;;5099438;28;20051;-71
2022/06/09 11:25:37;;;;;;;2.45;1.80;;;21.80;60.60;;;;;;5097748;28;20047;-70
2022/06/09 11:28:14;;;;;;;2.65;1.75;;;22.00;61.80;;;;;;5089108;28;20063;-71
2022/06/09 11:30:50;;;;;;;4.47;1.98;;;21.50;62.30;;;;;;5090467;28;20084;-71
2022/06/09 11:33:31;;;;;;;2.83;1.60;;;22.10;58.40;;;;;;5090341;28;20637;-71
2022/06/09 11:36:00;;;;;;;3.75;1.88;;;22.10;58.30;;;;;;5102926;28;20051;-71
2022/06/09 11:38:40;;;;;;;3.75;1.90;;;22.10;58.40;;;;;;5106814;28;20051;-71
2022/06/09 11:41:18;;;;;;;4.38;1.85;;;22.20;58.40;;;;;;5091998;28;20055;-72
2022/06/09 11:43:52;;;;;;;3.75;1.85;;;21.60;61.60;;;;;;5094144;28;20048;-70
2022/06/09 11:46:20;;;;;;;4.40;2.00;;;22.10;62.20;;;;;;5097297;28;20043;-71
2022/06/09 11:48:49;;;;;;;3.42;2.13;;;22.20;58.40;;;;;;5104709;28;20055;-71
2022/06/09 11:51:17;;;;;;;3.38;2.00;;;22.20;58.40;;;;;;5099061;28;20060;-71
2022/06/09 11:53:46;;;;;;;7.10;2.60;;;22.20;58.30;;;;;;5099616;28;20047;-72
2022/06/09 11:56:34;;;;;;;7.07;3.53;;;23.10;63.00;;;;;;5088719;28;20135;-70
2022/06/09 11:59:01;;;;;;;6.88;2.97;;;22.40;62.10;;;;;;5092280;28;20070;-72
2022/06/09 12:01:42;;;;;;;4.97;2.78;;;22.30;58.40;;;;;;5102962;28;20052;-71
2022/06/09 12:04:21;;;;;;;5.75;2.83;;;23.30;63.10;;;;;;5094820;28;20047;-71
2022/06/09 12:07:13;;;;;;;6.90;2.83;;;22.20;58.30;;;;;;5100599;28;20047;-72
2022/06/09 12:09:46;;;;;;;5.95;2.70;;;22.40;62.80;;;;;;5101276;28;20058;-72
2022/06/09 12:12:32;;;;;;;5.13;2.72;;;22.20;58.40;;;;;;5107082;28;20482;-72
2022/06/09 12:15:20;;;;;;;7.05;2.83;;;22.30;58.30;;;;;;5097166;28;20051;-71
2022/06/09 12:18:01;;;;;;;7.28;3.47;;;22.20;61.70;;;;;;5089935;28;20417;-71
2022/06/09 12:20:33;;;;;;;7.57;3.88;;;22.30;61.90;;;;;;5087057;28;20410;-72
2022/06/09 12:23:05;;;;;;;11.98;4.72;;;22.20;62.70;;;;;;5087116;28;20059;-71
2022/06/09 12:25:33;;;;;;;22.25;7.65;;;22.50;60.50;;;;;;5087321;28;20091;-71
2022/06/09 12:28:00;;;;;;;20.63;7.75;;;22.30;58.20;;;;;;5096277;28;20594;-71
2022/06/09 12:30:31;;;;;;;30.60;11.00;;;22.40;61.80;;;;;;5104230;28;20425;-71
2022/06/09 12:33:32;;;;;;;25.33;10.40;;;23.00;61.80;;;;;;5092621;28;20412;-71
2022/06/09 12:36:02;;;;;;;23.23;8.40;;;22.30;58.10;;;;;;5098568;28;20063;-71
2022/06/09 12:38:32;;;;;;;19.15;7.47;;;22.30;58.10;;;;;;5124503;27;20130;-71
2022/06/09 12:41:01;;;;;;;23.67;6.90;;;22.30;58.30;;;;;;5092479;28;20135;-71
2022/06/09 12:43:34;;;;;;;21.27;7.50;;;23.20;62.20;;;;;;5090152;28;20051;-71
2022/06/09 12:46:17;;;;;;;17.60;7.03;;;22.40;58.40;;;;;;5107569;28;20399;-70
2022/06/09 12:48:45;;;;;;;17.88;6.40;;;22.30;61.80;;;;;;5089252;28;20055;-71
2022/06/09 12:51:20;;;;;;;12.15;6.03;;;22.30;61.70;;;;;;5109772;28;20093;-71
2022/06/09 12:53:56;;;;;;;15.60;6.13;;;22.60;63.20;;;;;;5090686;28;20130;-71
2022/06/09 12:56:26;;;;;;;15.07;5.90;;;22.20;61.90;;;;;;5091448;28;20054;-71
2022/06/09 12:58:54;;;;;;;15.45;5.60;;;22.40;62.60;;;;;;5101205;28;20079;-71
2022/06/09 13:01:23;;;;;;;13.40;5.25;;;22.40;58.20;;;;;;5106663;27;20057;-70
2022/06/09 13:03:51;;;;;;;13.85;5.18;;;22.40;58.20;;;;;;5131034;27;20489;-71
2022/06/09 13:06:23;;;;;;;14.13;5.25;;;22.40;58.80;;;;;;5109025;27;20051;-72
2022/06/09 13:08:53;;;;;;;10.82;4.85;;;22.20;61.60;;;;;;5097114;28;20043;-71
2022/06/09 13:12:50;;;;;;;11.38;4.53;;;22.40;58.40;;;;;;5098530;28;20051;-71
2022/06/09 13:14:09;;;;;;;9.77;4.07;;;21.70;61.70;;;;;;5101953;28;20052;-71
2022/06/09 13:16:39;;;;;;;11.35;4.60;;;22.30;58.50;;;;;;5073702;28;20055;-71